Aérodrome :
LOGIN :

S'inscrire | Disclaimer

   EN    FR    IT 

 










Légende :    VFR   VFR Marginal   IFR   IFR Intensif   IFR Très Intensif
Visi : 
Plafond : 
>= 8 km
>= 3000ft
5 à 8 km
1000 à 3000 ft
1500m à 5 km
500 à 1000 ft
800 à 1500m
200 à 500 ft
< 800m
< 200 ft
Symboles :   Orages  Brouillard  Fortes neiges  Fortes précipitations  Vent > 20 kt
SIGMETs :   Divers  Orages  Givrage  Turbulence  Onde Orograph.  Cendres Volcan.






- Altitude de l'aérodrome : 40 ft
- Code IATA : RMI


LIPR - Federico Fellini Int. Rimini

DERNIER METAR :
  • 221320Z VRB01KT CAVOK 15/00 Q1024

METARs EXPIRÉS :
  • 221250Z 09004KT 040V130 CAVOK 07/01 Q1024
  • 221220Z 06004KT 020V120 CAVOK 07/01 Q1025
  • 221150Z 06004KT 020V120 CAVOK 06/01 Q1025
  • 221120Z 07005KT 040V120 CAVOK 05/00 Q1026
  • 221050Z 05004KT 020V080 CAVOK 06/00 Q1026

TAF TAF LIPR
Valide du 22 à 12h jusqu'au 23 à 12h UTC


221100Z 2212/2312 VRB05KT CAVOK
BECMG 2218/2220 3000 BR
TEMPO 2300/2307 1200 BCFG BKN007



MET'MAP, la Météo Aéronautique d'un coup d'oeil ! - Copyright ORBIFLY Décembre 2007 - Disclaimer

ORBIFLY MET'MAP TEAM :

Programmation & Développement : Alexandra Zaïnal
Sur une idée originale de : Baudouin d'Aumeries
Assistance à la programmation : Marc-Olivier Méhu
Soutien technique & logistique : Manuel Goepfert

Contact : metmap@orbifly.com




SOURCES & CREDITS :

   NOAA